Latest Weather Observations for Hervey Bay

IDQ60801

Issued at 4:35 pm EST Wednesday 23 April 2014 (issued every 30 minutes, with the page automatically refreshed every 10 minutes)

About weather observations | Map of weather stations | Latest weather observations for QLD | Other Formats
Station Details ID: 040405 Name: HERVEY BAY AIRPORT Lat: -25.32 Lon: 152.88 Height: 12.98 m
Data from the previous 72 hours. | See also: Recent months at Hervey Bay
Date/Time
EST
Temp
°C
App
Temp
°C
Dew
Point
Rel
Hum
%
Delta-T
°C
Wind Press
QNH
hPa
Press
MSL
hPa
Rain
since 9 am
mm
Dir
 
Spd
km/h
Gust
km/h
Spd
kts
Gust
kts
23/04:30pm 25.1 25.4 17.8 64 4.6 E 13 15 7 8 1015.5 - 0.0
23/04:00pm 25.1 25.5 18.1 65 4.4 E 13 17 7 9 1015.6 - 0.0
23/03:30pm 25.3 24.9 18.0 64 4.6 ESE 17 19 9 10 1015.2 - 0.0
23/03:00pm 26.1 25.9 17.7 60 5.3 ESE 15 20 8 11 1015.3 1015.2 0.0
23/02:30pm 26.1 26.3 17.7 60 5.3 ESE 13 17 7 9 1015.5 - 0.0
23/02:00pm 25.6 26.5 18.5 65 4.5 ESE 11 17 6 9 1015.7 - 0.0
23/01:30pm 26.2 26.8 17.6 59 5.4 ESE 11 17 6 9 1016.0 - 0.0
23/01:00pm 26.6 27.3 17.9 59 5.5 ESE 11 19 6 10 1016.3 - 0.0
23/12:30pm 26.3 26.4 17.4 58 5.6 ESE 13 17 7 9 1016.8 - 0.0
23/12:00pm 26.1 26.5 17.2 58 5.5 ENE 11 19 6 10 1017.4 1017.3 0.0
23/11:30am 26.0 27.1 17.1 58 5.5 E 7 11 4 6 1017.7 - 0.0
23/11:00am 25.5 26.9 17.4 61 5.1 ESE 6 11 3 6 1018.2 - 0.0
23/10:30am 24.9 26.6 18.1 66 4.3 S 6 11 3 6 1018.5 - 0.0
23/10:00am 24.2 25.9 18.4 70 3.7 SE 7 11 4 6 1018.3 - 0.0
23/09:30am 23.6 25.7 18.9 75 3.0 SE 6 13 3 7 1018.6 - 0.0
23/09:00am 22.6 25.2 20.1 86 1.6 SSE 6 9 3 5 1018.5 1018.4 0.0
23/08:30am 21.1 24.2 19.4 90 1.1 SSE 2 7 1 4 1018.9 - 0.0
23/08:00am 19.7 21.2 18.0 90 1.0 S 7 11 4 6 1018.8 - 0.0
23/07:30am 18.7 19.4 17.0 90 1.0 SSW 9 11 5 6 1018.3 - 0.0
23/07:00am 18.6 19.6 16.9 90 1.0 SW 7 9 4 5 1018.4 - 0.0
23/06:30am 18.0 18.4 16.3 90 1.0 SSW 9 9 5 5 1018.4 - 0.0
23/06:00am 18.1 19.0 16.6 91 0.9 SSW 7 9 4 5 1018.4 1018.3 0.0
23/05:30am 18.0 19.9 16.7 92 0.8 SW 2 7 1 4 1018.4 - 0.0
23/05:00am 18.2 19.1 16.7 91 0.9 SSW 7 9 4 5 1017.9 - 0.0
23/04:30am 18.3 18.8 16.6 90 1.0 SSW 9 13 5 7 1018.0 - 0.0
23/04:00am 18.3 19.4 17.0 92 0.8 SSW 7 11 4 6 1017.6 - 0.0
23/03:30am 18.1 19.2 16.6 91 0.9 WSW 6 7 3 4 1017.8 - 0.0
23/03:00am 18.3 19.5 16.8 91 0.9 SW 6 7 3 4 1018.0 1017.9 0.0
23/02:30am 18.6 19.8 17.3 92 0.8 SW 7 11 4 6 1017.9 - 0.0
23/02:00am 18.2 19.3 17.2 94 0.6 SSW 7 11 4 6 1018.1 - 0.0
23/01:30am 18.1 20.4 16.8 92 0.8 CALM 0 0 0 0 1018.2 - 0.0
23/01:00am 18.2 20.6 16.9 92 0.8 CALM 0 0 0 0 1018.5 - 0.0
23/12:30am 18.4 20.4 16.9 91 0.9 SW 2 6 1 3 1018.7 - 0.0
23/12:00am 18.7 21.1 17.0 90 1.0 ESE 0 0 0 0 1018.8 1018.7 0.0
 
Date/Time
EST
Temp
°C
App
Temp
°C
Dew
Point
Rel
Hum
%
Delta-T
°C
Wind Press
QNH
hPa
Press
MSL
hPa
Rain
since 9 am
mm
Dir
 
Spd
km/h
Gust
km/h
Spd
kts
Gust
kts
22/11:30pm 18.9 21.3 17.0 89 1.1 CALM 0 0 0 0 1018.8 - 0.0
22/11:00pm 19.3 21.8 17.3 88 1.2 CALM 0 0 0 0 1019.3 - 0.0
22/10:30pm 19.9 22.6 17.7 87 1.4 CALM 0 0 0 0 1019.4 - 0.0
22/10:00pm 20.1 22.6 17.3 84 1.7 CALM 0 0 0 0 1019.4 - 0.0
22/09:30pm 20.2 21.4 16.8 81 2.1 E 6 7 3 4 1019.5 - 0.0
22/09:00pm 21.4 22.5 17.0 76 2.7 E 7 9 4 5 1019.7 1019.6 0.0
22/08:30pm 22.9 23.7 17.4 71 3.4 ENE 9 13 5 7 1019.7 - 0.0
22/08:00pm 23.2 23.7 17.4 70 3.6 E 11 13 6 7 1019.6 - 0.0
22/07:30pm 23.6 23.8 17.6 69 3.7 E 13 17 7 9 1019.4 - 0.0
22/07:00pm 23.3 23.8 17.5 70 3.6 E 11 13 6 7 1019.2 - 0.0
22/06:30pm 23.5 23.6 17.5 69 3.7 E 13 17 7 9 1018.9 - 0.0
22/06:00pm 23.8 22.6 17.1 66 4.1 E 19 24 10 13 1018.6 1018.5 0.0
22/05:30pm 23.9 23.4 16.9 65 4.3 E 15 19 8 10 1018.5 - 0.0
22/05:00pm 24.6 23.4 16.1 59 5.2 E 17 22 9 12 1018.4 - 0.0
22/04:30pm 25.5 23.7 15.5 54 6.1 E 19 24 10 13 1018.2 - 0.0
22/04:00pm 26.1 24.5 16.1 54 6.1 E 19 24 10 13 1018.0 - 0.0
22/03:30pm 26.5 24.8 15.8 51 6.5 E 19 24 10 13 1018.0 - 0.0
22/03:00pm 27.3 25.7 15.0 47 7.4 E 17 22 9 12 1018.1 1018.0 0.0
22/02:30pm 27.1 25.7 14.5 46 7.6 E 15 20 8 11 1018.2 - 0.0
22/02:00pm 27.2 25.9 14.9 47 7.4 E 15 20 8 11 1018.4 - 0.0
22/01:30pm 26.9 25.2 12.5 40 8.4 E 13 20 7 11 1018.5 - 0.0
22/01:00pm 27.2 25.9 12.4 40 8.6 E 11 19 6 10 1018.8 - 0.0
22/12:30pm 27.2 25.4 12.0 38 8.8 ESE 13 20 7 11 1018.9 - 0.0
22/12:00pm 27.4 26.9 12.2 39 8.8 NE 6 9 3 5 1019.7 1019.6 0.0
22/11:30am 27.2 26.4 12.8 41 8.4 S 9 19 5 10 1020.0 - 0.0
22/11:00am 26.9 25.8 11.8 39 8.7 SE 9 15 5 8 1020.4 - 0.0
22/10:30am 26.3 24.8 13.1 44 7.7 E 13 19 7 10 1020.8 - 0.0
22/10:00am 25.9 25.4 15.0 51 6.6 E 11 17 6 9 1021.0 - 0.0
22/09:30am 25.2 25.1 16.1 57 5.6 E 11 17 6 9 1021.0 - 0.0
22/09:00am 23.5 24.6 17.0 67 4.0 SW 7 9 4 5 1021.4 1021.3 0.0
22/08:30am 21.6 21.9 17.0 75 2.8 SSW 11 11 6 6 1021.4 - 0.0
22/08:00am 19.9 19.9 16.3 80 2.2 SSW 11 15 6 8 1021.3 - 0.0
22/07:30am 18.4 18.0 15.1 81 1.9 SSW 11 13 6 7 1021.0 - 0.0
22/07:00am 16.9 16.9 15.1 89 1.0 SSW 9 13 5 7 1020.6 - 0.0
22/06:30am 15.5 15.6 14.5 94 0.6 SSW 7 11 4 6 1020.8 - 0.0
22/06:00am 14.8 14.7 14.0 95 0.4 SSW 7 9 4 5 1020.5 1020.4 0.0
22/05:30am 14.5 14.5 13.5 94 0.6 SSW 6 7 3 4 1020.1 - 0.0
22/05:00am 14.5 15.3 13.7 95 0.4 SW 2 6 1 3 1019.9 - 0.0
22/04:30am 14.2 14.1 13.2 94 0.6 SSW 6 6 3 3 1019.8 - 0.0
22/04:00am 14.2 15.2 13.2 94 0.6 CALM 0 0 0 0 1019.6 - 0.0
22/03:30am 14.3 14.2 13.3 94 0.6 SSW 6 9 3 5 1019.7 - 0.0
22/03:00am 14.4 15.1 13.4 94 0.6 SSW 2 6 1 3 1019.6 1019.5 0.0
22/02:30am 14.5 14.4 13.4 93 0.6 SSW 6 7 3 4 1019.7 - 0.0
22/02:00am 14.6 14.4 13.6 94 0.6 SSW 7 9 4 5 1019.9 - 0.0
22/01:30am 14.5 14.8 13.4 93 0.6 SSE 4 7 2 4 1020.1 - 0.0
22/01:00am 14.9 16.1 13.8 93 0.6 CALM 0 0 0 0 1020.1 - 0.0
22/12:30am 14.9 16.0 13.6 92 0.7 CALM 0 0 0 0 1020.4 - 0.0
22/12:00am 15.3 16.6 14.2 93 0.6 CALM 0 0 0 0 1020.6 1020.5 0.0
 
Date/Time
EST
Temp
°C
App
Temp
°C
Dew
Point
Rel
Hum
%
Delta-T
°C
Wind Press
QNH
hPa
Press
MSL
hPa
Rain
since 9 am
mm
Dir
 
Spd
km/h
Gust
km/h
Spd
kts
Gust
kts
21/11:30pm 15.3 16.6 14.0 92 0.7 CALM 0 0 0 0 1020.6 - 0.0
21/11:00pm 15.6 16.9 14.1 91 0.8 CALM 0 0 0 0 1020.8 - 0.0
21/10:30pm 15.8 17.2 14.3 91 0.9 CALM 0 0 0 0 1020.9 - 0.0
21/10:00pm 16.1 17.1 14.3 89 1.0 E 2 6 1 3 1021.0 - 0.0
21/09:30pm 16.7 17.7 14.3 86 1.4 E 2 6 1 3 1021.0 - 0.0
21/09:00pm 17.5 17.6 14.0 80 2.0 E 6 7 3 4 1020.9 1020.8 0.0
21/08:30pm 19.7 20.0 14.5 72 3.0 ENE 6 9 3 5 1021.1 - 0.0
21/08:00pm 20.7 20.3 14.1 66 3.8 E 9 11 5 6 1020.8 - 0.0
21/07:30pm 21.3 21.1 14.7 66 3.9 E 9 15 5 8 1020.4 - 0.0
21/07:00pm 22.8 21.4 14.4 59 4.9 E 15 20 8 11 1019.8 - 0.0
21/06:30pm 23.0 22.2 15.1 61 4.7 E 13 17 7 9 1019.5 - 0.0
21/06:00pm 23.2 22.4 15.0 60 4.9 E 13 17 7 9 1019.4 1019.3 0.0
21/05:30pm 23.8 22.4 14.5 56 5.5 E 15 20 8 11 1019.1 - 0.0
21/05:00pm 24.9 23.0 14.1 51 6.4 E 17 22 9 12 1018.8 - 0.0
21/04:30pm 25.7 23.5 14.5 50 6.7 E 19 24 10 13 1018.6 - 0.0
21/04:00pm 26.3 24.0 14.1 47 7.3 E 19 26 10 14 1018.5 - 0.0
21/03:30pm 27.0 24.3 13.4 43 8.0 E 20 26 11 14 1018.3 - 0.0
21/03:00pm 27.5 25.0 13.4 41 8.3 E 19 28 10 15 1018.3 1018.2 0.0
21/02:30pm 27.4 24.9 13.4 42 8.3 ESE 19 24 10 13 1018.3 - 0.0
21/02:00pm 27.5 25.9 12.7 40 8.6 E 13 20 7 11 1018.4 - 0.0
21/01:30pm 27.8 25.8 12.6 39 8.9 E 15 20 8 11 1018.6 - 0.0
21/01:00pm 27.5 26.4 13.1 41 8.5 ESE 11 20 6 11 1019.0 - 0.0
21/12:30pm 27.8 26.7 14.4 43 8.1 SE 13 20 7 11 1019.2 - 0.0
21/12:00pm 27.3 26.6 13.3 42 8.2 ESE 9 15 5 8 1019.6 1019.5 0.0
21/11:30am 26.9 25.5 12.2 40 8.5 ENE 11 17 6 9 1020.0 - 0.0
21/11:00am 27.2 27.1 13.9 44 7.9 E 7 17 4 9 1020.4 - 0.0
21/10:30am 26.5 25.5 13.3 44 7.8 ESE 11 19 6 10 1020.8 - 0.0
21/10:00am 26.1 25.3 13.9 47 7.2 ENE 11 20 6 11 1020.9 - 0.0
21/09:30am 26.0 25.6 15.1 51 6.6 ENE 11 17 6 9 1020.9 - 0.0
21/09:00am 25.7 25.5 15.7 54 6.1 ENE 11 15 6 8 1020.7 1020.6 0.0
21/08:30am 23.7 25.5 18.4 72 3.3 WSW 6 7 3 4 1020.8 - 0.0
21/08:00am 21.1 22.8 18.1 83 1.9 SSW 6 7 3 4 1020.7 - 0.0
21/07:30am 18.7 19.7 16.8 89 1.1 SSW 7 7 4 4 1020.5 - 0.0
21/07:00am 16.9 18.9 15.9 94 0.6 CALM 0 0 0 0 1020.3 - 0.0
21/06:30am 14.8 16.0 13.8 94 0.6 CALM 0 0 0 0 1020.0 - 0.0
21/06:00am 14.3 15.3 13.3 94 0.6 CALM 0 0 0 0 1019.6 1019.5 0.0
21/05:30am 14.5 15.6 13.5 94 0.6 CALM 0 0 0 0 1019.3 - 0.0
21/05:00am 14.6 15.7 13.6 94 0.6 CALM 0 0 0 0 1019.1 - 0.0
21/04:30am 14.8 16.0 13.8 94 0.6 CALM 0 0 0 0 1018.8 - 0.0
21/04:00am 14.8 16.0 13.8 94 0.6 CALM 0 0 0 0 1018.5 - 0.0
21/03:30am 14.9 16.1 13.9 94 0.6 CALM 0 0 0 0 1018.3 - 0.0
21/03:00am 15.0 16.3 14.0 94 0.6 CALM 0 0 0 0 1018.2 1018.1 0.0
21/02:30am 15.2 16.5 14.2 94 0.6 CALM 0 0 0 0 1018.2 - 0.0
21/02:00am 15.3 16.6 14.2 93 0.6 CALM 0 0 0 0 1018.3 - 0.0
21/01:30am 15.3 16.6 14.2 93 0.6 CALM 0 0 0 0 1018.3 - 0.0
21/01:00am 15.4 16.8 14.3 93 0.6 CALM 0 0 0 0 1018.5 - 0.0
21/12:30am 15.6 17.0 14.5 93 0.6 CALM 0 0 0 0 1018.7 - 0.0
21/12:00am 15.7 17.2 14.6 93 0.6 CALM 0 0 0 0 1018.8 1018.7 0.0
 
Date/Time
EST
Temp
°C
App
Temp
°C
Dew
Point
Rel
Hum
%
Delta-T
°C
Wind Press
QNH
hPa
Press
MSL
hPa
Rain
since 9 am
mm
Dir
 
Spd
km/h
Gust
km/h
Spd
kts
Gust
kts
20/11:30pm 16.0 17.6 14.9 93 0.6 CALM 0 0 0 0 1018.8 - 0.0
20/11:00pm 16.2 17.8 14.9 92 0.7 CALM 0 0 0 0 1018.9 - 0.0
20/10:30pm 16.5 18.2 15.2 92 0.8 CALM 0 0 0 0 1018.9 - 0.0
20/10:00pm 16.7 18.4 15.2 91 0.9 CALM 0 0 0 0 1019.0 - 0.0
20/09:30pm 17.2 19.0 15.5 90 1.0 CALM 0 0 0 0 1018.9 - 0.0
20/09:00pm 17.6 19.6 15.9 90 1.0 CALM 0 0 0 0 1018.9 1018.8 0.0
20/08:30pm 18.0 20.0 16.0 88 1.2 CALM 0 0 0 0 1018.7 - 0.0
20/08:00pm 18.7 20.8 16.3 86 1.4 CALM 0 0 0 0 1018.4 - 0.0
20/07:30pm 19.5 20.9 16.5 83 1.8 E 4 7 2 4 1018.1 - 0.0
20/07:00pm 20.7 21.3 15.9 74 2.9 NE 7 7 4 4 1017.8 - 0.0
20/06:30pm 22.9 23.6 16.2 66 4.1 NNE 7 7 4 4 1017.4 - 0.0
20/06:00pm 23.2 23.9 16.0 64 4.4 NNE 7 9 4 5 1017.0 1016.9 0.0
20/05:30pm 24.0 23.9 15.0 57 5.4 N 9 15 5 8 1016.8 - 0.0
20/05:00pm 24.8 24.1 14.3 52 6.2 N 11 15 6 8 1016.5 - 0.0

Other Formats:

Comma delimited format used in spreadsheet applications
http://www.bom.gov.au/fwo/IDQ60801/IDQ60801.95565.axf

JavaScript Object Notation format (JSON) in row-major order
http://www.bom.gov.au/fwo/IDQ60801/IDQ60801.95565.json